KNIP

Details ICAO KNIP (NIP)
Name Jacksonville NAS
Region United States
Timezone America/New_York (UTC-5.0)
Plans Departing 24
Arriving 24
Stats Elevation 22 ft / 7 m (AMSL)
Location 30.234262° -81.674650°
Runways 2
Magnetic Variation 6.436° W
Sunrise 2017-12-14 12:16:31 UTC / 2017-12-14 07:16:31 Local
Sunset 2017-12-14 22:29:15 UTC / 2017-12-14 17:29:15 Local
Advertisement - Login to hide

Runways

ID Width Length Bearing (true) Bearing (mag) Surface Threshold Offset Overrun Length
09 200 ft / 61 m 7,987 ft / 2,434 m 89.67° 96.11° Asphalt 0 ft / 0 m 0 ft / 0 m
14 200 ft / 61 m 5,982 ft / 1,823 m 134.81° 141.25° Asphalt 2,734 ft / 833 m 0 ft / 0 m
27 200 ft / 61 m 7,987 ft / 2,434 m 269.68° 276.12° Asphalt 0 ft / 0 m 1,000 ft / 305 m
32 200 ft / 61 m 5,982 ft / 1,823 m 314.82° 321.26° Asphalt 0 ft / 0 m 0 ft / 0 m

Map

Weather


0- 5 10 15 20 25 30 35+ Temperature / ° C

Clouds and Precipitation
Forecast for 2017-12-15 06:00 UTC. Updated a few seconds ago

Ground ~20,000 ft ~40,000 ft Winds

METAR

KNIP 150053Z 00000KT 10SM FEW050 SCT180 BKN250 17/10 A3004 RMK AO2 SLP166 T01670100

TAF

Not found

Frequencies

Clearance 134.77 MHz CLNC DEL
Tower 120.00 MHz TWR
Ground 128.60 MHz GND
Approach 123.80 MHz APP/DEP
Warning: Do not use this data for real-world aviation or navigation. No guarantee of current accuracy is given.